createdAt,value
2019-05-20T00:00:56.943Z,11.00
2019-05-20T00:03:29.770Z,10.94
2019-05-20T00:06:02.924Z,10.88
2019-05-20T00:08:35.044Z,10.82
2019-05-20T00:11:07.656Z,10.75
2019-05-20T00:13:39.886Z,10.72
2019-05-20T00:16:11.948Z,10.82
2019-05-20T00:18:44.113Z,10.81
2019-05-20T00:21:16.178Z,10.79
2019-05-20T00:23:48.692Z,10.83
2019-05-20T00:26:22.589Z,10.90
2019-05-20T00:28:57.201Z,10.87
2019-05-20T00:31:29.255Z,10.78
2019-05-20T00:34:01.295Z,10.71
2019-05-20T00:36:33.347Z,10.60
2019-05-20T00:39:20.144Z,10.53
2019-05-20T00:41:52.362Z,10.46
2019-05-20T00:44:24.435Z,10.48
2019-05-20T00:46:56.617Z,10.49
2019-05-20T00:49:30.293Z,10.50
2019-05-20T00:52:03.288Z,10.50
2019-05-20T00:54:35.467Z,10.50
2019-05-20T00:57:07.597Z,10.61
2019-05-20T00:59:39.999Z,10.60
2019-05-20T01:02:12.013Z,10.58
2019-05-20T01:04:44.016Z,10.41
2019-05-20T01:07:16.026Z,10.39
2019-05-20T01:09:48.054Z,10.21
2019-05-20T01:12:20.230Z,10.05
2019-05-20T01:14:52.312Z,10.09
2019-05-20T01:17:24.386Z,9.96
2019-05-20T01:19:56.729Z,9.90
2019-05-20T01:22:29.759Z,9.95
2019-05-20T01:25:03.233Z,9.84
2019-05-20T01:27:35.274Z,9.77
2019-05-20T01:30:07.643Z,9.85
2019-05-20T01:32:39.661Z,9.86
2019-05-20T01:35:11.888Z,9.89
2019-05-20T01:37:44.445Z,9.78
2019-05-20T01:40:17.179Z,9.73
2019-05-20T01:42:49.200Z,9.73
2019-05-20T01:45:21.280Z,9.77
2019-05-20T01:47:53.317Z,9.75
2019-05-20T01:50:25.336Z,9.79
2019-05-20T01:52:57.448Z,9.82
2019-05-20T01:55:29.421Z,9.77
2019-05-20T01:58:02.922Z,9.80
2019-05-20T02:00:35.013Z,9.78
2019-05-20T02:03:07.436Z,9.78
2019-05-20T02:05:39.516Z,9.84
2019-05-20T02:08:11.525Z,9.93
2019-05-20T02:10:45.295Z,9.88
2019-05-20T02:13:17.260Z,9.90
2019-05-20T02:16:02.832Z,9.80
2019-05-20T02:18:34.799Z,9.77
2019-05-20T02:21:07.675Z,9.74
2019-05-20T02:23:39.742Z,9.77
2019-05-20T02:26:11.839Z,9.82
2019-05-20T02:28:43.941Z,9.78
2019-05-20T02:31:17.679Z,9.76
2019-05-20T02:33:52.762Z,9.70
2019-05-20T02:36:24.102Z,9.74
2019-05-20T02:38:56.252Z,9.69
2019-05-20T02:41:28.567Z,9.66
2019-05-20T02:44:02.098Z,9.65
2019-05-20T02:46:34.176Z,9.70
2019-05-20T02:49:06.230Z,9.67
2019-05-20T02:51:38.295Z,9.72
2019-05-20T02:54:10.323Z,9.71
2019-05-20T02:56:42.412Z,9.61
2019-05-20T02:59:14.576Z,9.57
2019-05-20T03:01:46.638Z,9.54
2019-05-20T03:04:20.302Z,9.52
2019-05-20T03:06:52.602Z,9.31
2019-05-20T03:09:25.109Z,9.15
2019-05-20T03:11:59.740Z,9.15
2019-05-20T03:14:32.105Z,9.05
2019-05-20T03:17:04.067Z,9.08
2019-05-20T03:19:36.011Z,9.07
2019-05-20T03:22:11.340Z,9.13
2019-05-20T03:24:43.310Z,9.20
2019-05-20T03:27:16.581Z,9.23
2019-05-20T03:29:49.175Z,9.25
2019-05-20T03:32:21.180Z,9.18
2019-05-20T03:34:59.315Z,9.21
2019-05-20T03:37:26.890Z,9.29
2019-05-20T03:39:58.923Z,9.26
2019-05-20T03:42:31.082Z,9.35
2019-05-20T03:45:03.154Z,9.40
2019-05-20T03:47:35.587Z,9.37
2019-05-20T03:50:11.314Z,9.35
2019-05-20T03:52:43.487Z,9.33
2019-05-20T03:55:16.787Z,9.32
2019-05-20T03:57:48.815Z,9.31
2019-05-20T04:00:25.230Z,9.21
2019-05-20T04:02:57.180Z,9.11
2019-05-20T04:05:29.137Z,9.02
2019-05-20T04:08:02.854Z,9.06
2019-05-20T04:10:35.371Z,9.03
2019-05-20T04:13:07.493Z,9.07
2019-05-20T04:15:39.756Z,9.06
2019-05-20T04:18:11.881Z,9.10
2019-05-20T04:20:43.986Z,9.09
2019-05-20T04:23:24.406Z,9.02
2019-05-20T04:25:56.461Z,8.95
2019-05-20T04:28:28.444Z,8.84
2019-05-20T04:31:01.110Z,8.76
2019-05-20T04:33:34.563Z,8.60
2019-05-20T04:36:06.573Z,8.56
2019-05-20T04:38:38.884Z,8.48
2019-05-20T04:41:11.114Z,8.44
2019-05-20T04:43:43.263Z,8.55
2019-05-20T04:46:15.357Z,8.60
2019-05-20T04:48:47.906Z,8.56
2019-05-20T04:51:20.006Z,8.49
2019-05-20T04:53:52.506Z,8.50
2019-05-20T04:56:29.025Z,8.40
2019-05-20T04:58:59.456Z,8.39
2019-05-20T05:01:31.526Z,8.35
2019-05-20T05:04:04.256Z,8.33
2019-05-20T05:06:37.409Z,8.30
2019-05-20T05:09:09.660Z,8.33
2019-05-20T05:11:41.829Z,8.34
2019-05-20T05:14:14.029Z,8.32
2019-05-20T05:16:46.055Z,8.36
2019-05-20T05:19:18.189Z,8.29
2019-05-20T05:21:53.090Z,8.38
2019-05-20T05:24:25.291Z,8.41
2019-05-20T05:26:57.425Z,8.48
2019-05-20T05:29:29.776Z,8.55
2019-05-20T05:32:03.485Z,8.58
2019-05-20T05:34:35.902Z,8.63
2019-05-20T05:37:07.951Z,8.74
2019-05-20T05:39:40.012Z,8.85
2019-05-20T05:42:12.067Z,9.15
2019-05-20T05:44:44.033Z,9.26
2019-05-20T05:47:16.182Z,9.39
2019-05-20T05:49:48.165Z,9.63
2019-05-20T05:52:22.921Z,9.64
2019-05-20T05:54:53.901Z,9.80
2019-05-20T05:57:26.472Z,9.96
2019-05-20T05:59:58.584Z,10.11
2019-05-20T06:02:30.734Z,10.34
2019-05-20T06:05:02.828Z,10.34
2019-05-20T06:07:34.900Z,10.39
2019-05-20T06:10:09.907Z,10.63
2019-05-20T06:12:41.916Z,10.74
2019-05-20T06:15:15.586Z,10.89
2019-05-20T06:17:48.020Z,11.00
2019-05-20T06:20:21.054Z,11.10
2019-05-20T06:22:53.171Z,11.18
2019-05-20T06:25:25.293Z,11.36
2019-05-20T06:32:37.947Z,11.60
2019-05-20T06:36:41.464Z,11.58
2019-05-20T06:40:14.144Z,11.56
2019-05-20T06:46:38.705Z,11.43
2019-05-20T06:49:11.537Z,11.72
2019-05-20T06:51:51.253Z,11.81
2019-05-20T06:54:23.385Z,12.05
2019-05-20T06:56:55.875Z,12.10
2019-05-20T06:59:27.981Z,12.20
2019-05-20T07:02:00.020Z,12.34
2019-05-20T07:04:34.332Z,12.47
2019-05-20T07:07:19.934Z,12.60
2019-05-20T07:09:40.203Z,12.94
2019-05-20T07:12:12.515Z,13.24
2019-05-20T07:14:47.340Z,13.39
2019-05-20T07:17:19.492Z,13.96
2019-05-20T07:19:51.632Z,14.01
2019-05-20T07:22:24.104Z,14.43
2019-05-20T07:24:56.252Z,14.40
2019-05-20T07:27:28.382Z,15.00
2019-05-20T07:30:00.512Z,16.14
2019-05-20T07:32:33.039Z,16.64
2019-05-20T07:35:05.368Z,17.53
2019-05-20T07:37:39.089Z,18.06
2019-05-20T07:40:11.533Z,19.44
2019-05-20T07:42:43.753Z,20.17
2019-05-20T07:45:16.416Z,20.80
2019-05-20T07:47:49.160Z,21.36
2019-05-20T07:50:21.559Z,21.34
2019-05-20T07:52:55.264Z,20.90
2019-05-20T07:55:33.148Z,20.52
2019-05-20T07:58:10.342Z,20.33
2019-05-20T08:00:42.508Z,20.34
2019-05-20T08:03:15.246Z,20.17
2019-05-20T08:05:47.365Z,20.65
2019-05-20T08:08:20.560Z,20.72
2019-05-20T08:10:55.259Z,20.38
2019-05-20T08:13:27.313Z,20.20
2019-05-20T08:15:59.382Z,20.33
2019-05-20T08:18:32.018Z,19.18
2019-05-20T08:21:07.096Z,19.39
2019-05-20T08:23:39.322Z,19.54
2019-05-20T08:26:11.596Z,19.06
2019-05-20T08:28:43.774Z,19.99
2019-05-20T08:31:15.933Z,23.07
2019-05-20T08:33:48.124Z,27.21
2019-05-20T08:36:20.220Z,30.19
2019-05-20T08:38:52.439Z,31.55
2019-05-20T08:41:24.645Z,30.85
2019-05-20T08:43:56.863Z,31.55
2019-05-20T08:46:29.544Z,31.56
2019-05-20T08:49:02.013Z,32.10
2019-05-20T08:51:34.287Z,31.79
2019-05-20T08:54:07.345Z,31.29
2019-05-20T08:56:39.496Z,32.42
2019-05-20T08:59:11.705Z,32.45
2019-05-20T09:01:43.940Z,33.48
2019-05-20T09:04:16.131Z,33.49
2019-05-20T09:06:48.656Z,34.16
2019-05-20T09:09:21.077Z,35.17
2019-05-20T09:11:53.199Z,34.49
2019-05-20T09:14:26.555Z,33.75
2019-05-20T09:16:58.579Z,32.06
2019-05-20T09:19:30.637Z,30.65
2019-05-20T09:22:02.951Z,32.15
2019-05-20T09:24:35.066Z,32.06
2019-05-20T09:27:07.920Z,32.94
2019-05-20T09:29:40.210Z,33.36
2019-05-20T09:32:12.430Z,34.59
2019-05-20T09:34:44.671Z,34.59
2019-05-20T09:37:20.011Z,36.40
2019-05-20T09:39:53.875Z,38.15
2019-05-20T09:42:26.130Z,39.85
2019-05-20T09:45:02.791Z,40.46
2019-05-20T09:47:32.383Z,40.67
2019-05-20T09:50:04.891Z,40.88
2019-05-20T09:52:37.022Z,40.81
2019-05-20T09:55:09.547Z,38.74
2019-05-20T09:57:41.653Z,39.36
2019-05-20T10:00:14.069Z,38.54
2019-05-20T10:02:46.076Z,35.06
2019-05-20T10:05:18.179Z,36.42
2019-05-20T10:07:50.353Z,35.86
2019-05-20T10:10:22.611Z,35.62
2019-05-20T10:12:56.298Z,38.63
2019-05-20T10:15:28.684Z,39.50
2019-05-20T10:18:00.733Z,40.88
2019-05-20T10:20:33.022Z,41.11
2019-05-20T10:23:05.206Z,38.51
2019-05-20T10:25:37.345Z,37.60
2019-05-20T10:28:09.679Z,37.43
2019-05-20T10:30:41.834Z,38.93
2019-05-20T10:33:15.598Z,36.04
2019-05-20T10:35:47.663Z,36.19
2019-05-20T10:38:19.859Z,34.96
2019-05-20T10:40:53.024Z,36.26
2019-05-20T10:43:25.199Z,37.67
2019-05-20T10:45:57.261Z,37.51
2019-05-20T10:48:29.346Z,39.10
2019-05-20T10:51:01.349Z,39.52
2019-05-20T10:53:36.493Z,40.87
2019-05-20T10:56:08.571Z,40.48
2019-05-20T10:58:40.839Z,40.32
2019-05-20T11:01:12.998Z,39.48
2019-05-20T11:03:45.166Z,38.22
2019-05-20T11:06:17.315Z,37.38
2019-05-20T11:08:49.908Z,37.71
2019-05-20T11:11:23.572Z,37.95
2019-05-20T11:13:55.754Z,35.33
2019-05-20T11:16:27.836Z,35.00
2019-05-20T11:18:59.988Z,34.73
2019-05-20T11:21:32.042Z,32.82
2019-05-20T11:24:04.383Z,32.39
2019-05-20T11:26:36.598Z,31.01
2019-05-20T11:29:08.955Z,29.45
2019-05-20T11:31:41.053Z,29.31
2019-05-20T11:34:13.184Z,29.82
2019-05-20T11:36:45.375Z,30.21
2019-05-20T11:39:32.357Z,30.28
2019-05-20T11:41:53.900Z,30.49
2019-05-20T11:44:25.596Z,30.70
2019-05-20T11:46:59.451Z,30.04
2019-05-20T11:49:32.198Z,29.70
2019-05-20T11:52:04.473Z,29.80
2019-05-20T11:54:37.744Z,29.76
2019-05-20T11:57:09.764Z,29.37
2019-05-20T11:59:41.817Z,29.38
2019-05-20T12:02:14.080Z,29.22
2019-05-20T12:04:46.489Z,29.21
2019-05-20T12:07:18.537Z,29.00
2019-05-20T12:09:53.835Z,28.37
2019-05-20T12:12:25.926Z,28.60
2019-05-20T12:14:57.946Z,27.56
2019-05-20T12:17:30.428Z,27.05
2019-05-20T12:20:04.355Z,28.11
2019-05-20T12:22:37.257Z,28.33
2019-05-20T12:25:11.528Z,29.12
2019-05-20T12:27:43.603Z,29.56
2019-05-20T12:30:16.301Z,29.66
2019-05-20T12:33:16.689Z,28.76
2019-05-20T12:35:25.488Z,27.12
2019-05-20T12:37:57.530Z,28.64
2019-05-20T12:40:29.598Z,28.41
2019-05-20T12:43:01.696Z,28.24
2019-05-20T12:45:33.851Z,27.20
2019-05-20T12:48:10.333Z,26.59
2019-05-20T12:50:43.592Z,26.40
2019-05-20T12:53:17.910Z,27.07
2019-05-20T12:59:57.631Z,25.92
2019-05-20T13:03:40.248Z,26.49
2019-05-20T13:11:10.827Z,27.17
2019-05-20T13:52:27.773Z,25.02
2019-05-20T13:54:49.870Z,25.77
2019-05-20T13:56:53.402Z,25.27
2019-05-20T14:00:07.698Z,25.00
2019-05-20T14:03:52.311Z,24.83
2019-05-20T14:07:00.313Z,24.84
2019-05-20T14:10:14.897Z,23.97
2019-05-20T14:13:16.241Z,24.88
2019-05-20T14:16:09.195Z,24.57
2019-05-20T14:22:23.861Z,24.77
2019-05-20T14:28:52.594Z,25.29
2019-05-20T14:39:13.135Z,24.79
2019-05-20T14:42:25.393Z,25.41
2019-05-20T14:45:55.546Z,24.99
2019-05-20T14:49:15.743Z,25.02
2019-05-20T14:55:51.102Z,24.63
2019-05-20T14:58:23.101Z,25.61
2019-05-20T15:00:55.166Z,25.68
2019-05-20T15:03:28.176Z,25.56
2019-05-20T15:06:00.370Z,25.07
2019-05-20T15:08:34.994Z,25.45
2019-05-20T15:11:08.417Z,25.30
2019-05-20T15:13:41.693Z,25.66
2019-05-20T15:16:13.619Z,25.57
2019-05-20T15:18:46.297Z,24.97
2019-05-20T15:21:18.258Z,25.43
2019-05-20T15:23:53.770Z,25.17
2019-05-20T15:26:25.741Z,25.34
2019-05-20T15:28:57.833Z,25.17
2019-05-20T15:31:29.747Z,25.15
2019-05-20T15:34:01.973Z,24.95
2019-05-20T15:36:34.213Z,24.91
2019-05-20T15:39:07.608Z,24.65
2019-05-20T15:41:39.656Z,24.62
2019-05-20T15:44:12.834Z,24.48
2019-05-20T15:46:45.440Z,24.37
2019-05-20T15:49:17.387Z,24.12
2019-05-20T15:51:53.179Z,24.12
2019-05-20T15:54:25.561Z,24.16
2019-05-20T15:56:58.924Z,23.98
2019-05-20T15:59:44.787Z,24.16
2019-05-20T16:02:05.079Z,24.07
2019-05-20T16:04:38.228Z,24.32
2019-05-20T16:07:10.163Z,24.35
2019-05-20T16:09:42.117Z,24.63
2019-05-20T16:12:14.088Z,24.27
2019-05-20T16:14:46.074Z,24.07
2019-05-20T16:17:18.229Z,23.79
2019-05-20T16:19:50.191Z,23.82
2019-05-20T16:22:25.063Z,23.58
2019-05-20T16:24:57.070Z,23.62
2019-05-20T16:27:32.518Z,23.29
2019-05-20T16:30:06.715Z,23.15
2019-05-20T16:32:38.417Z,22.91
2019-05-20T16:35:10.646Z,22.67
2019-05-20T16:37:43.835Z,22.42
2019-05-20T16:40:16.071Z,22.37
2019-05-20T16:42:48.167Z,22.37
2019-05-20T16:45:20.392Z,22.41
2019-05-20T16:47:56.774Z,22.26
2019-05-20T16:50:30.342Z,22.36
2019-05-20T16:53:04.054Z,22.32
2019-05-20T16:55:35.999Z,22.30
2019-05-20T16:58:08.160Z,22.41
2019-05-20T17:00:43.368Z,22.02
2019-05-20T17:03:15.535Z,21.98
2019-05-20T17:05:47.740Z,22.04
2019-05-20T17:08:20.356Z,21.95
2019-05-20T17:10:52.294Z,21.89
2019-05-20T17:13:24.412Z,22.09
2019-05-20T17:15:56.376Z,22.40
2019-05-20T17:18:28.484Z,22.29
2019-05-20T17:21:00.464Z,22.54
2019-05-20T17:23:34.057Z,22.65
2019-05-20T17:26:06.212Z,21.75
2019-05-20T17:28:38.205Z,21.79
2019-05-20T17:31:10.529Z,21.58
2019-05-20T17:33:42.473Z,21.78
2019-05-20T17:36:14.671Z,22.12
2019-05-20T17:38:47.181Z,22.21
2019-05-20T17:41:19.491Z,22.15
2019-05-20T17:43:51.453Z,22.12
2019-05-20T17:46:23.830Z,22.09
2019-05-20T17:48:55.832Z,22.05
2019-05-20T17:51:27.810Z,22.07
2019-05-20T17:53:59.782Z,21.58
2019-05-20T17:56:32.398Z,21.42
2019-05-20T17:59:04.416Z,21.36
2019-05-20T18:01:36.787Z,21.15
2019-05-20T18:04:08.875Z,20.81
2019-05-20T18:06:42.250Z,20.81
2019-05-20T18:09:14.252Z,20.64
2019-05-20T18:11:46.378Z,20.41
2019-05-20T18:14:18.957Z,20.39
2019-05-20T18:16:51.133Z,20.37
2019-05-20T18:19:24.169Z,20.34
2019-05-20T18:21:56.299Z,20.19
2019-05-20T18:24:28.219Z,20.17
2019-05-20T18:27:04.255Z,20.14
2019-05-20T18:29:36.199Z,20.09
2019-05-20T18:32:08.106Z,20.07
2019-05-20T18:34:40.552Z,19.95
2019-05-20T18:37:12.754Z,19.85
2019-05-20T18:39:44.679Z,19.88
2019-05-20T18:42:17.743Z,19.86
2019-05-20T18:44:49.610Z,19.84
2019-05-20T18:47:21.618Z,19.72
2019-05-20T18:49:57.306Z,19.55
2019-05-20T18:52:29.307Z,19.46
2019-05-20T18:55:01.279Z,19.39
2019-05-20T18:57:35.362Z,19.31
2019-05-20T19:00:08.897Z,19.21
2019-05-20T19:02:43.098Z,19.17
2019-05-20T19:05:15.270Z,19.16
2019-05-20T19:07:47.313Z,19.08
2019-05-20T19:10:19.396Z,19.04
2019-05-20T19:12:53.077Z,18.85
2019-05-20T19:15:27.301Z,18.77
2019-05-20T19:17:59.561Z,18.71
2019-05-20T19:20:33.637Z,18.64
2019-05-20T19:23:06.547Z,18.57
2019-05-20T19:25:38.547Z,18.44
2019-05-20T19:28:10.472Z,18.41
2019-05-20T19:30:42.526Z,18.28
2019-05-20T19:33:15.361Z,18.12
2019-05-20T19:35:48.524Z,17.95
2019-05-20T19:38:20.560Z,17.84
2019-05-20T19:40:52.679Z,17.78
2019-05-20T19:43:24.615Z,17.67
2019-05-20T19:45:57.085Z,17.61
2019-05-20T19:48:30.831Z,17.46
2019-05-20T19:51:02.794Z,17.42
2019-05-20T19:53:35.166Z,17.32
2019-05-20T19:56:07.268Z,17.13
2019-05-20T19:58:41.130Z,17.13
2019-05-20T20:01:13.165Z,17.04
2019-05-20T20:03:45.305Z,16.90
2019-05-20T20:06:17.254Z,16.89
2019-05-20T20:08:49.198Z,16.79
2019-05-20T20:11:21.176Z,16.69
2019-05-20T20:13:53.144Z,16.62
2019-05-20T20:16:28.523Z,16.47
2019-05-20T20:19:00.429Z,16.30
2019-05-20T20:21:33.513Z,16.25
2019-05-20T20:24:09.503Z,16.20
2019-05-20T20:26:42.634Z,16.13
2019-05-20T20:29:14.672Z,15.99
2019-05-20T20:31:48.093Z,15.97
2019-05-20T20:34:21.914Z,15.93
2019-05-20T20:36:54.380Z,15.84
2019-05-20T20:39:26.527Z,15.85
2019-05-20T20:41:58.732Z,15.82
2019-05-20T20:44:31.051Z,15.76
2019-05-20T20:47:07.263Z,15.78
2019-05-20T20:49:39.471Z,15.75
2019-05-20T20:52:11.646Z,15.82
2019-05-20T20:54:45.455Z,15.83
2019-05-20T20:57:17.511Z,15.83
2019-05-20T20:59:52.823Z,15.90
2019-05-20T21:02:26.146Z,15.90
2019-05-20T21:05:00.152Z,15.87
2019-05-20T21:07:34.771Z,15.88
2019-05-20T21:10:09.256Z,15.85
2019-05-20T21:12:41.579Z,15.74
2019-05-20T21:15:14.001Z,15.66
2019-05-20T21:17:47.513Z,15.57
2019-05-20T21:20:22.729Z,15.44
2019-05-20T21:22:54.881Z,15.32
2019-05-20T21:25:27.219Z,15.23
2019-05-20T21:28:05.616Z,15.13
2019-05-20T21:30:44.047Z,15.00
2019-05-20T21:33:19.310Z,15.00
2019-05-20T21:35:51.970Z,14.88
2019-05-20T21:38:31.833Z,14.81
2019-05-20T21:41:16.027Z,14.69
2019-05-20T21:43:48.443Z,14.76
2019-05-20T21:46:21.038Z,14.69
2019-05-20T21:48:53.458Z,14.64
2019-05-20T21:51:38.758Z,14.65
2019-05-20T21:54:31.831Z,14.67
2019-05-20T21:57:03.958Z,14.71
2019-05-20T21:59:36.207Z,14.69
2019-05-20T22:02:08.992Z,14.66
2019-05-20T22:04:43.365Z,14.64
2019-05-20T22:07:20.526Z,14.68
2019-05-20T22:09:53.492Z,14.61
2019-05-20T22:12:25.613Z,14.56
2019-05-20T22:14:59.419Z,14.55
2019-05-20T22:17:31.611Z,14.48
2019-05-20T22:20:04.979Z,14.54
2019-05-20T22:22:51.427Z,14.58
2019-05-20T22:25:23.572Z,14.36
2019-05-20T22:27:55.737Z,14.65
2019-05-20T22:30:28.050Z,14.59
2019-05-20T22:33:00.447Z,14.58
2019-05-20T22:35:35.715Z,14.56
2019-05-20T22:38:08.338Z,14.52
2019-05-20T22:40:45.470Z,14.47
2019-05-20T22:43:17.561Z,14.44
2019-05-20T22:45:49.689Z,14.44
2019-05-20T22:48:23.510Z,14.42
2019-05-20T22:50:55.758Z,14.32
2019-05-20T22:53:28.037Z,14.31
2019-05-20T22:56:00.156Z,14.27
2019-05-20T22:58:38.680Z,14.19
2019-05-20T23:01:11.621Z,14.18
2019-05-20T23:03:56.182Z,14.19
2019-05-20T23:06:19.355Z,14.17
2019-05-20T23:08:51.501Z,14.10
2019-05-20T23:11:28.034Z,13.95
2019-05-20T23:14:00.126Z,13.90
2019-05-20T23:16:32.812Z,13.87
2019-05-20T23:19:05.713Z,13.85
2019-05-20T23:21:38.805Z,13.78
2019-05-20T23:24:15.988Z,13.59
2019-05-20T23:26:47.925Z,13.54
2019-05-20T23:29:20.068Z,13.48
2019-05-20T23:31:52.161Z,13.32
2019-05-20T23:34:24.798Z,13.26
2019-05-20T23:36:58.435Z,13.20
2019-05-20T23:39:30.546Z,13.17
2019-05-20T23:42:03.450Z,13.03
2019-05-20T23:44:35.543Z,13.03
2019-05-20T23:47:07.607Z,12.95
2019-05-20T23:49:39.710Z,12.82
2019-05-20T23:52:12.290Z,12.72
2019-05-20T23:54:44.551Z,12.60
2019-05-20T23:57:16.873Z,12.56
2019-05-20T23:59:49.323Z,12.63
